Time,TemperatureF,DewpointF,PressureIn,WindDirection,WindDirectionDegrees,WindSpeedMPH,WindSpeedGustMPH,Humidity,HourlyPrecipIn,Conditions,Clouds,dailyrainin,SolarRadiationWatts/m^2,SoftwareType,DateUTC
2013-02-19 00:02:00,45.0,38.0,-100.00,SSW,210,8.0,25.0,76,0.07,,,0.09,0.000000,,2013-02-19 06:02:00,
2013-02-19 00:33:00,44.0,40.0,-100.00,SW,220,11.0,20.0,86,0.05,,,-99.99,0.000000,,2013-02-19 06:33:00,
2013-02-19 00:42:00,44.0,40.0,-100.00,SW,220,11.0,20.0,86,0.05,,,-99.99,0.000000,,2013-02-19 06:42:00,
2013-02-19 00:52:00,44.0,40.0,-100.00,SW,220,11.0,20.0,86,0.05,,,-99.99,0.000000,,2013-02-19 06:52:00,
2013-02-19 01:01:00,44.0,40.0,-100.00,SW,220,11.0,20.0,86,0.05,,,-99.99,0.000000,,2013-02-19 07:01:00,
2013-02-19 01:32:00,44.0,42.0,-100.00,SSW,198,11.0,21.0,91,0.03,,,0.17,0.000000,,2013-02-19 07:32:00,
2013-02-19 01:42:00,44.0,42.0,-100.00,SSW,198,11.0,21.0,91,0.03,,,0.17,0.000000,,2013-02-19 07:42:00,
2013-02-19 01:52:00,44.0,42.0,-100.00,SSW,198,11.0,21.0,91,0.03,,,0.17,0.000000,,2013-02-19 07:52:00,
2013-02-19 02:02:00,44.0,42.0,-100.00,SSW,198,11.0,21.0,91,0.03,,,0.17,0.000000,,2013-02-19 08:02:00,
2013-02-19 02:32:00,44.0,40.0,-100.00,SSW,211,9.0,23.0,86,0.01,,,0.18,0.000000,,2013-02-19 08:32:00,
2013-02-19 02:42:00,44.0,40.0,-100.00,SSW,211,9.0,23.0,86,0.01,,,0.18,0.000000,,2013-02-19 08:42:00,
2013-02-19 02:52:00,44.0,40.0,-100.00,SSW,211,9.0,23.0,86,0.01,,,0.18,0.000000,,2013-02-19 08:52:00,
2013-02-19 03:01:00,44.0,40.0,-100.00,SSW,211,9.0,23.0,86,0.01,,,0.18,0.000000,,2013-02-19 09:01:00,
2013-02-19 03:32:00,44.0,43.0,-100.00,SSW,210,9.0,17.0,95,0.05,,,0.23,0.000000,,2013-02-19 09:32:00,
2013-02-19 03:42:00,44.0,43.0,-100.00,SSW,210,9.0,17.0,95,0.05,,,0.23,0.000000,,2013-02-19 09:42:00,
2013-02-19 03:53:00,44.0,43.0,-100.00,SSW,210,9.0,17.0,95,0.05,,,0.23,0.000000,,2013-02-19 09:53:00,
2013-02-19 04:01:00,44.0,43.0,-100.00,SSW,210,9.0,17.0,95,0.05,,,0.23,0.000000,,2013-02-19 10:01:00,
2013-02-19 04:32:00,44.0,43.0,-100.00,SW,230,8.0,17.0,98,0.07,,,0.30,0.000000,,2013-02-19 10:32:00,
2013-02-19 04:42:00,44.0,43.0,-100.00,SW,230,8.0,17.0,98,0.07,,,0.30,0.000000,,2013-02-19 10:42:00,
2013-02-19 04:52:00,44.0,43.0,-100.00,SW,230,8.0,17.0,98,0.07,,,0.30,0.000000,,2013-02-19 10:52:00,
2013-02-19 05:01:00,44.0,43.0,-100.00,SW,230,8.0,17.0,98,0.07,,,0.30,0.000000,,2013-02-19 11:01:00,
2013-02-19 05:32:00,40.0,39.0,-100.00,West,275,8.0,19.0,98,0.07,,,0.37,0.000000,,2013-02-19 11:32:00,
2013-02-19 05:42:00,40.0,39.0,-100.00,West,275,8.0,19.0,98,0.07,,,0.37,0.000000,,2013-02-19 11:42:00,
2013-02-19 05:52:00,40.0,39.0,-100.00,West,275,8.0,19.0,98,0.07,,,0.37,0.000000,,2013-02-19 11:52:00,
2013-02-19 06:02:00,40.0,39.0,-100.00,West,275,8.0,19.0,98,0.07,,,0.37,0.000000,,2013-02-19 12:02:00,
2013-02-19 06:32:00,39.0,37.0,-100.00,West,267,6.0,14.0,93,0.00,,,0.37,0.000000,,2013-02-19 12:32:00,
2013-02-19 06:42:00,39.0,37.0,-100.00,West,267,6.0,14.0,93,0.00,,,0.37,0.000000,,2013-02-19 12:42:00,
2013-02-19 06:52:00,39.0,37.0,-100.00,West,267,6.0,14.0,93,0.00,,,0.37,0.000000,,2013-02-19 12:52:00,
2013-02-19 07:02:00,39.0,37.0,-100.00,West,267,6.0,14.0,93,0.00,,,0.37,0.000000,,2013-02-19 13:02:00,
2013-02-19 07:32:00,39.0,36.0,-100.00,West,265,5.0,11.0,90,0.00,,,0.37,6.000000,,2013-02-19 13:32:00,
2013-02-19 07:42:00,39.0,36.0,-100.00,West,265,5.0,11.0,90,0.00,,,0.37,6.000000,,2013-02-19 13:42:00,
2013-02-19 07:52:00,39.0,36.0,-100.00,West,265,5.0,11.0,90,0.00,,,0.37,6.000000,,2013-02-19 13:52:00,
2013-02-19 08:01:00,39.0,36.0,-100.00,West,265,5.0,11.0,90,0.00,,,0.37,6.000000,,2013-02-19 14:01:00,
2013-02-19 08:33:00,39.0,36.0,-100.00,WNW,294,8.0,16.0,88,0.00,,,0.37,46.000000,,2013-02-19 14:33:00,
2013-02-19 08:42:00,39.0,36.0,-100.00,WNW,294,8.0,16.0,88,0.00,,,0.37,46.000000,,2013-02-19 14:42:00,
2013-02-19 08:52:00,39.0,36.0,-100.00,WNW,294,8.0,16.0,88,0.00,,,0.37,46.000000,,2013-02-19 14:52:00,
2013-02-19 09:01:00,39.0,36.0,-100.00,WNW,294,8.0,16.0,88,0.00,,,0.37,46.000000,,2013-02-19 15:01:00,
2013-02-19 09:32:00,41.0,33.0,-100.00,West,263,7.0,17.0,74,0.00,,,0.37,268.000000,,2013-02-19 15:32:00,
2013-02-19 09:42:00,41.0,33.0,-100.00,West,263,7.0,17.0,74,0.00,,,0.37,268.000000,,2013-02-19 15:42:00,
2013-02-19 09:52:00,41.0,33.0,-100.00,West,263,7.0,17.0,74,0.00,,,0.37,268.000000,,2013-02-19 15:52:00,
2013-02-19 10:02:00,41.0,33.0,-100.00,West,263,7.0,17.0,74,0.00,,,0.37,268.000000,,2013-02-19 16:02:00,
2013-02-19 11:32:00,44.0,29.0,-100.00,West,263,9.0,18.0,56,-99.99,,,-99.99,559.000000,,2013-02-19 17:32:00,
2013-02-19 11:42:00,44.0,29.0,-100.00,West,263,9.0,18.0,56,-99.99,,,-99.99,559.000000,,2013-02-19 17:42:00,
2013-02-19 11:52:00,44.0,29.0,-100.00,West,263,9.0,18.0,56,-99.99,,,-99.99,559.000000,,2013-02-19 17:52:00,
2013-02-19 12:01:00,44.0,29.0,-100.00,West,263,9.0,18.0,56,-99.99,,,-99.99,559.000000,,2013-02-19 18:01:00,
2013-02-19 12:32:00,44.0,27.0,-100.00,West,262,10.0,21.0,50,0.00,,,0.37,663.000000,,2013-02-19 18:32:00,
2013-02-19 12:42:00,44.0,27.0,-100.00,West,262,10.0,21.0,50,0.00,,,0.37,663.000000,,2013-02-19 18:42:00,
2013-02-19 12:52:00,44.0,27.0,-100.00,West,262,10.0,21.0,50,0.00,,,0.37,663.000000,,2013-02-19 18:52:00,
2013-02-19 13:01:00,44.0,27.0,-100.00,West,262,10.0,21.0,50,0.00,,,0.37,663.000000,,2013-02-19 19:01:00,
2013-02-19 13:32:00,45.0,24.0,-100.00,West,268,9.0,19.0,43,0.00,,,0.37,643.000000,,2013-02-19 19:32:00,
2013-02-19 13:42:00,45.0,24.0,-100.00,West,268,9.0,19.0,43,0.00,,,0.37,643.000000,,2013-02-19 19:42:00,
2013-02-19 13:52:00,45.0,24.0,-100.00,West,268,9.0,19.0,43,0.00,,,0.37,643.000000,,2013-02-19 19:52:00,
2013-02-19 14:01:00,45.0,24.0,-100.00,West,268,9.0,19.0,43,0.00,,,0.37,643.000000,,2013-02-19 20:01:00,
2013-02-19 14:32:00,46.0,21.0,-100.00,West,266,9.0,19.0,36,0.00,,,-99.99,603.000000,,2013-02-19 20:32:00,
2013-02-19 14:42:00,46.0,21.0,-100.00,West,266,9.0,19.0,36,0.00,,,-99.99,603.000000,,2013-02-19 20:42:00,
2013-02-19 14:52:00,46.0,21.0,-100.00,West,266,9.0,19.0,36,0.00,,,-99.99,603.000000,,2013-02-19 20:52:00,
2013-02-19 15:02:00,46.0,21.0,-100.00,West,266,9.0,19.0,36,0.00,,,-99.99,603.000000,,2013-02-19 21:02:00,
2013-02-19 15:32:00,46.0,20.0,-100.00,WSW,257,8.0,18.0,35,0.00,,,0.37,482.000000,,2013-02-19 21:32:00,
2013-02-19 15:42:00,46.0,20.0,-100.00,WSW,257,8.0,18.0,35,0.00,,,0.37,482.000000,,2013-02-19 21:42:00,
2013-02-19 15:52:00,46.0,20.0,-100.00,WSW,257,8.0,18.0,35,0.00,,,0.37,482.000000,,2013-02-19 21:52:00,
2013-02-19 16:02:00,46.0,20.0,-100.00,WSW,257,8.0,18.0,35,0.00,,,0.37,482.000000,,2013-02-19 22:02:00,
2013-02-19 16:32:00,44.0,17.0,-100.00,West,273,10.0,19.0,33,0.00,,,-99.99,324.000000,,2013-02-19 22:32:00,
2013-02-19 16:42:00,44.0,17.0,-100.00,West,273,10.0,19.0,33,0.00,,,-99.99,324.000000,,2013-02-19 22:42:00,
2013-02-19 16:52:00,44.0,17.0,-100.00,West,273,10.0,19.0,33,0.00,,,-99.99,324.000000,,2013-02-19 22:52:00,
2013-02-19 17:01:00,44.0,17.0,-100.00,West,273,10.0,19.0,33,0.00,,,-99.99,324.000000,,2013-02-19 23:01:00,
2013-02-19 17:32:00,41.0,15.0,-100.00,West,273,5.0,16.0,35,0.00,,,0.37,136.000000,,2013-02-19 23:32:00,
2013-02-19 17:42:00,41.0,15.0,-100.00,West,273,5.0,16.0,35,0.00,,,0.37,136.000000,,2013-02-19 23:42:00,
2013-02-19 17:52:00,41.0,15.0,-100.00,West,273,5.0,16.0,35,0.00,,,0.37,136.000000,,2013-02-19 23:52:00,
2013-02-19 18:01:00,41.0,15.0,-100.00,West,273,5.0,16.0,35,0.00,,,0.37,136.000000,,2013-02-20 00:01:00,
2013-02-19 18:32:00,38.0,15.0,-100.00,West,274,6.0,16.0,39,0.00,,,0.37,5.000000,,2013-02-20 00:32:00,
2013-02-19 18:42:00,38.0,15.0,-100.00,West,274,6.0,16.0,39,0.00,,,0.37,5.000000,,2013-02-20 00:42:00,
2013-02-19 18:52:00,38.0,15.0,-100.00,West,274,6.0,16.0,39,0.00,,,0.37,5.000000,,2013-02-20 00:52:00,
2013-02-19 19:02:00,38.0,15.0,-100.00,West,274,6.0,16.0,39,0.00,,,0.37,5.000000,,2013-02-20 01:02:00,
2013-02-19 19:32:00,36.0,16.0,-100.00,West,265,5.0,12.0,44,0.00,,,0.37,0.000000,,2013-02-20 01:32:00,
2013-02-19 19:42:00,36.0,16.0,-100.00,West,265,5.0,12.0,44,0.00,,,0.37,0.000000,,2013-02-20 01:42:00,
2013-02-19 19:52:00,36.0,16.0,-100.00,West,265,5.0,12.0,44,0.00,,,0.37,0.000000,,2013-02-20 01:52:00,
2013-02-19 20:01:00,36.0,16.0,-100.00,West,265,5.0,12.0,44,0.00,,,0.37,0.000000,,2013-02-20 02:01:00,
2013-02-19 20:32:00,35.0,17.0,-100.00,WSW,253,5.0,10.0,47,0.00,,,0.37,0.000000,,2013-02-20 02:32:00,
2013-02-19 20:42:00,35.0,17.0,-100.00,WSW,253,5.0,10.0,47,0.00,,,0.37,0.000000,,2013-02-20 02:42:00,
2013-02-19 20:52:00,35.0,17.0,-100.00,WSW,253,5.0,10.0,47,0.00,,,0.37,0.000000,,2013-02-20 02:52:00,
2013-02-19 21:02:00,35.0,17.0,-100.00,WSW,253,5.0,10.0,47,0.00,,,0.37,0.000000,,2013-02-20 03:02:00,
2013-02-19 21:32:00,33.0,16.0,-100.00,WSW,244,4.0,6.0,50,0.00,,,0.37,0.000000,,2013-02-20 03:32:00,
2013-02-19 21:42:00,33.0,16.0,-100.00,WSW,244,4.0,6.0,50,0.00,,,0.37,0.000000,,2013-02-20 03:42:00,
2013-02-19 21:52:00,33.0,16.0,-100.00,WSW,244,4.0,6.0,50,0.00,,,0.37,0.000000,,2013-02-20 03:52:00,
2013-02-19 22:01:00,33.0,16.0,-100.00,WSW,244,4.0,6.0,50,0.00,,,0.37,0.000000,,2013-02-20 04:01:00,
2013-02-19 22:32:00,32.0,16.0,-100.00,WSW,248,4.0,6.0,51,0.00,,,0.35,0.000000,,2013-02-20 04:32:00,
2013-02-19 22:42:00,32.0,16.0,-100.00,WSW,248,4.0,6.0,51,0.00,,,0.35,0.000000,,2013-02-20 04:42:00,
2013-02-19 22:52:00,32.0,16.0,-100.00,WSW,248,4.0,6.0,51,0.00,,,0.35,0.000000,,2013-02-20 04:52:00,
2013-02-19 23:02:00,32.0,16.0,-100.00,WSW,248,4.0,6.0,51,0.00,,,0.35,0.000000,,2013-02-20 05:02:00,
2013-02-19 23:32:00,30.0,16.0,-100.00,NW,309,3.0,9.0,55,0.00,,,0.28,0.000000,,2013-02-20 05:32:00,
2013-02-19 23:43:00,30.0,16.0,-100.00,NW,309,3.0,9.0,55,0.00,,,0.28,0.000000,,2013-02-20 05:43:00,
2013-02-19 23:52:00,30.0,16.0,-100.00,NW,309,3.0,9.0,55,0.00,,,0.28,0.000000,,2013-02-20 05:52:00,